createdAt,value
2023-06-19T00:04:05.613Z,7.57
2023-06-19T00:09:08.023Z,7.18
2023-06-19T00:14:09.606Z,9.32
2023-06-19T00:19:11.808Z,7.05
2023-06-19T00:24:13.414Z,6.22
2023-06-19T00:29:14.988Z,6.57
2023-06-19T00:34:16.595Z,8.32
2023-06-19T00:39:18.251Z,9.45
2023-06-19T00:44:19.956Z,8.10
2023-06-19T00:49:21.844Z,8.88
2023-06-19T00:54:23.741Z,7.47
2023-06-19T00:59:25.247Z,7.55
2023-06-19T01:04:26.839Z,8.02
2023-06-19T01:09:38.082Z,10.80
2023-06-19T01:14:51.181Z,9.70
2023-06-19T01:24:54.132Z,10.15
2023-06-19T01:29:55.975Z,11.13
2023-06-19T01:34:59.627Z,9.07
2023-06-19T01:40:05.568Z,8.02
2023-06-19T01:45:07.878Z,6.95
2023-06-19T01:50:10.484Z,6.60
2023-06-19T01:55:12.170Z,8.23
2023-06-19T02:00:13.921Z,9.55
2023-06-19T02:05:18.429Z,9.18
2023-06-19T02:10:20.009Z,9.75
2023-06-19T02:15:21.500Z,8.02
2023-06-19T02:20:25.641Z,10.18
2023-06-19T02:25:27.335Z,8.30
2023-06-19T02:30:28.843Z,8.68
2023-06-19T02:35:30.570Z,12.35
2023-06-19T02:40:32.101Z,10.05
2023-06-19T02:45:33.660Z,8.85
2023-06-19T02:50:35.437Z,8.57
2023-06-19T02:55:36.967Z,10.10
2023-06-19T03:00:39.015Z,10.45
2023-06-19T03:05:40.536Z,9.57
2023-06-19T03:10:42.043Z,9.38
2023-06-19T03:15:43.609Z,10.93
2023-06-19T03:20:45.493Z,9.77
2023-06-19T03:25:47.048Z,7.95
2023-06-19T03:30:48.746Z,10.10
2023-06-19T03:35:55.081Z,9.07
2023-06-19T03:41:15.360Z,9.18
2023-06-19T03:46:17.664Z,8.73
2023-06-19T03:51:19.227Z,9.20
2023-06-19T03:56:20.723Z,9.02
2023-06-19T04:01:22.249Z,11.93
2023-06-19T04:06:24.465Z,9.60
2023-06-19T04:11:25.952Z,9.48
2023-06-19T04:16:27.603Z,11.40
2023-06-19T04:21:29.355Z,10.82
2023-06-19T04:26:30.885Z,10.93
2023-06-19T04:31:32.477Z,11.50
2023-06-19T04:36:33.976Z,10.38
2023-06-19T04:41:39.380Z,12.07
2023-06-19T04:46:41.974Z,12.18
2023-06-19T04:51:43.488Z,10.75
2023-06-19T04:56:44.969Z,13.77
2023-06-19T05:01:46.516Z,12.60
2023-06-19T05:06:48.036Z,10.68
2023-06-19T05:11:49.551Z,11.27
2023-06-19T05:16:51.213Z,12.50
2023-06-19T05:21:52.776Z,11.82
2023-06-19T05:26:54.270Z,7.75
2023-06-19T05:31:55.782Z,10.63
2023-06-19T05:36:58.813Z,11.30
2023-06-19T05:42:00.297Z,9.30
2023-06-19T05:47:01.804Z,11.93
2023-06-19T05:52:03.863Z,12.38
2023-06-19T05:57:05.674Z,12.25
2023-06-19T06:02:07.292Z,10.15
2023-06-19T06:07:09.114Z,11.20
2023-06-19T06:12:10.607Z,10.63
2023-06-19T06:17:12.298Z,12.65
2023-06-19T06:22:13.784Z,9.18
2023-06-19T06:27:15.273Z,9.60
2023-06-19T06:32:16.997Z,7.82
2023-06-19T06:37:23.518Z,10.23
2023-06-19T06:42:24.999Z,9.93
2023-06-19T06:47:26.516Z,10.55
2023-06-19T06:52:29.056Z,10.52
2023-06-19T06:57:30.585Z,9.63
2023-06-19T07:02:32.214Z,10.77
2023-06-19T07:07:33.795Z,11.07
2023-06-19T07:12:35.304Z,12.05
2023-06-19T07:17:36.852Z,10.98
2023-06-19T07:22:38.916Z,9.63
2023-06-19T07:27:43.443Z,10.25
2023-06-19T07:32:45.052Z,9.73
2023-06-19T07:37:46.650Z,10.75
2023-06-19T07:42:48.158Z,9.63
2023-06-19T07:47:57.142Z,12.55
2023-06-19T07:52:59.056Z,10.73
2023-06-19T07:58:00.537Z,9.43
2023-06-19T08:03:02.412Z,10.82
2023-06-19T08:08:04.104Z,10.75
2023-06-19T08:13:05.596Z,8.75
2023-06-19T08:18:07.120Z,11.50
2023-06-19T08:23:08.623Z,13.52
2023-06-19T08:28:10.489Z,16.63
2023-06-19T08:33:12.046Z,10.48
2023-06-19T08:38:13.573Z,10.60
2023-06-19T08:43:15.095Z,14.27
2023-06-19T08:48:16.573Z,15.57
2023-06-19T08:53:18.081Z,11.00
2023-06-19T08:58:24.378Z,13.13
2023-06-19T09:03:26.262Z,12.43
2023-06-19T09:08:27.854Z,14.48
2023-06-19T09:13:33.122Z,22.85
2023-06-19T09:18:47.861Z,12.90
2023-06-19T09:23:53.057Z,12.25
2023-06-19T09:29:16.053Z,11.85
2023-06-19T09:34:19.358Z,19.23
2023-06-19T09:39:24.205Z,12.27
2023-06-19T09:44:27.721Z,11.35
2023-06-19T09:49:32.973Z,9.40
2023-06-19T09:54:35.945Z,14.57
2023-06-19T09:59:40.846Z,10.60
2023-06-19T10:04:46.898Z,13.77
2023-06-19T10:10:01.862Z,12.35
2023-06-19T10:15:19.624Z,13.05
2023-06-19T10:20:32.301Z,13.57
2023-06-19T10:25:36.147Z,27.50
2023-06-19T10:30:37.778Z,11.70
2023-06-19T10:35:41.151Z,11.10
2023-06-19T10:40:43.298Z,10.80
2023-06-19T10:45:45.301Z,11.85
2023-06-19T10:50:48.206Z,9.57
2023-06-19T10:55:49.703Z,12.45
2023-06-19T11:00:51.202Z,9.90
2023-06-19T11:05:52.734Z,10.95
2023-06-19T11:10:54.302Z,10.48
2023-06-19T11:15:55.929Z,8.93
2023-06-19T11:20:57.820Z,10.55
2023-06-19T11:26:06.585Z,12.57
2023-06-19T11:31:08.345Z,10.77
2023-06-19T11:36:09.926Z,9.68
2023-06-19T11:41:11.710Z,8.85
2023-06-19T11:46:17.099Z,9.15
2023-06-19T11:51:18.705Z,12.15
2023-06-19T11:56:20.201Z,8.45
2023-06-19T12:01:22.076Z,6.95
2023-06-19T12:06:23.880Z,8.75
2023-06-19T12:11:26.066Z,8.23
2023-06-19T12:16:29.505Z,11.20
2023-06-19T12:21:37.532Z,9.18
2023-06-19T12:26:41.166Z,11.15
2023-06-19T12:31:44.730Z,11.13
2023-06-19T12:36:46.221Z,8.27
2023-06-19T12:41:47.693Z,8.38
2023-06-19T12:46:49.324Z,7.00
2023-06-19T12:51:53.047Z,6.72
2023-06-19T12:56:54.826Z,7.40
2023-06-19T13:01:56.429Z,6.93
2023-06-19T13:06:57.954Z,8.50
2023-06-19T13:11:59.464Z,9.70
2023-06-19T13:17:01.196Z,7.35
2023-06-19T13:22:02.780Z,7.45
2023-06-19T13:27:04.596Z,8.80
2023-06-19T13:32:06.623Z,8.38
2023-06-19T13:37:08.149Z,12.00
2023-06-19T13:42:09.662Z,9.23
2023-06-19T13:47:36.682Z,7.20
2023-06-19T13:52:38.298Z,9.52
2023-06-19T13:57:41.307Z,8.15
2023-06-19T14:02:42.987Z,9.48
2023-06-19T14:07:44.701Z,8.55
2023-06-19T14:12:46.408Z,10.20
2023-06-19T14:17:48.125Z,7.07
2023-06-19T14:22:49.805Z,6.53
2023-06-19T14:27:51.378Z,6.65
2023-06-19T14:32:54.038Z,7.13
2023-06-19T14:37:55.691Z,5.30
2023-06-19T14:42:57.211Z,7.75
2023-06-19T14:47:58.800Z,8.98
2023-06-19T14:53:00.318Z,6.25
2023-06-19T15:03:18.457Z,7.20
2023-06-19T15:08:23.012Z,7.55
2023-06-19T15:13:24.548Z,7.97
2023-06-19T15:18:27.718Z,7.03
2023-06-19T15:23:29.380Z,9.70
2023-06-19T15:28:32.228Z,8.48
2023-06-19T15:33:33.695Z,6.43
2023-06-19T15:38:36.347Z,8.10
2023-06-19T15:43:38.766Z,7.10
2023-06-19T15:48:40.438Z,7.60
2023-06-19T15:53:42.072Z,12.95
2023-06-19T15:58:43.563Z,13.35
2023-06-19T16:03:45.149Z,9.07
2023-06-19T16:08:46.783Z,10.90
2023-06-19T16:13:48.291Z,9.50
2023-06-19T16:18:49.783Z,10.18
2023-06-19T16:23:51.471Z,7.70
2023-06-19T16:28:53.012Z,9.02
2023-06-19T16:33:54.491Z,7.75
2023-06-19T16:38:56.000Z,9.43
2023-06-19T16:43:57.490Z,9.68
2023-06-19T16:49:24.038Z,6.97
2023-06-19T16:54:25.628Z,12.32
2023-06-19T16:59:27.176Z,10.65
2023-06-19T17:04:28.655Z,20.08
2023-06-19T17:09:30.138Z,30.48
2023-06-19T17:14:31.688Z,34.15
2023-06-19T17:19:33.184Z,26.50
2023-06-19T17:24:34.885Z,21.58
2023-06-19T17:29:36.453Z,17.60
2023-06-19T17:34:37.957Z,13.55
2023-06-19T17:39:41.312Z,13.07
2023-06-19T17:44:42.814Z,11.93
2023-06-19T17:49:44.415Z,10.43
2023-06-19T17:54:50.088Z,9.05
2023-06-19T17:59:51.592Z,8.48
2023-06-19T18:04:53.077Z,9.57
2023-06-19T18:09:56.361Z,9.10
2023-06-19T18:14:57.861Z,8.13
2023-06-19T18:19:59.401Z,9.43
2023-06-19T18:25:00.910Z,8.00
2023-06-19T18:30:04.237Z,7.82
2023-06-19T18:35:06.712Z,8.15
2023-06-19T18:40:08.827Z,7.85
2023-06-19T18:45:10.531Z,10.05
2023-06-19T18:50:13.945Z,8.45
2023-06-19T18:55:15.441Z,7.97
2023-06-19T19:00:18.122Z,8.38
2023-06-19T19:05:19.613Z,7.80
2023-06-19T19:10:21.156Z,8.40
2023-06-19T19:15:22.687Z,7.72
2023-06-19T19:20:24.494Z,8.98
2023-06-19T19:25:26.349Z,9.10
2023-06-19T19:30:28.351Z,7.95
2023-06-19T19:35:30.089Z,7.38
2023-06-19T19:40:31.609Z,8.13
2023-06-19T19:45:33.173Z,7.78
2023-06-19T19:50:34.654Z,11.32
2023-06-19T19:55:36.133Z,8.27
2023-06-19T20:00:37.695Z,8.18
2023-06-19T20:05:39.309Z,7.75
2023-06-19T20:10:40.903Z,8.13
2023-06-19T20:15:42.454Z,8.90
2023-06-19T20:20:44.483Z,7.97
2023-06-19T20:25:46.403Z,7.70
2023-06-19T20:30:48.014Z,8.65
2023-06-19T20:35:50.848Z,8.13
2023-06-19T20:40:52.429Z,7.78
2023-06-19T20:45:55.243Z,10.63
2023-06-19T20:50:58.363Z,9.73
2023-06-19T20:55:59.921Z,10.88
2023-06-19T21:01:01.602Z,9.45
2023-06-19T21:06:03.890Z,12.68
2023-06-19T21:11:05.822Z,8.88
2023-06-19T21:16:07.383Z,9.57
2023-06-19T21:21:08.870Z,10.63
2023-06-19T21:26:10.371Z,7.32
2023-06-19T21:31:13.868Z,8.65
2023-06-19T21:36:15.397Z,8.10
2023-06-19T21:41:16.911Z,9.10
2023-06-19T21:46:18.524Z,8.68
2023-06-19T21:51:20.084Z,9.10
2023-06-19T21:56:21.592Z,8.68
2023-06-19T22:01:23.088Z,11.88
2023-06-19T22:06:24.649Z,11.73
2023-06-19T22:11:30.105Z,10.98
2023-06-19T22:16:32.678Z,10.50
2023-06-19T22:21:34.402Z,13.65
2023-06-19T22:26:38.189Z,14.98
2023-06-19T22:31:40.173Z,10.98
2023-06-19T22:36:41.807Z,9.85
2023-06-19T22:41:43.999Z,9.88
2023-06-19T22:46:45.553Z,12.73
2023-06-19T22:51:47.626Z,11.35
2023-06-19T22:56:49.128Z,12.55
2023-06-19T23:01:50.638Z,10.27
2023-06-19T23:06:53.102Z,11.07
2023-06-19T23:11:55.594Z,9.43
2023-06-19T23:16:57.390Z,10.55
2023-06-19T23:21:58.958Z,13.05
